Time;durP1;ratioP1;P1;durP2;ratioP2;P2;SDS_P1;SDS_P2;PMS_P1;PMS_P2;Temp;Humidity;BMP_temperature;BMP_pressure;BME280_temperature;BME280_humidity;BME280_pressure;Samples;Min_cycle;Max_cycle;Signal;HPM_P1;HPM_P2
2022/07/12 00:01:10;;;;;;;1.58;0.73;;;17.60;99.90;;;;;;5036645;28;20501;-89
2022/07/12 00:03:36;;;;;;;2.67;0.82;;;17.60;99.90;;;;;;5027456;28;20049;-89
2022/07/12 00:06:04;;;;;;;3.10;0.80;;;17.60;99.90;;;;;;5035545;28;20017;-89
2022/07/12 00:08:29;;;;;;;1.83;0.88;;;17.50;99.90;;;;;;5030287;28;20034;-90
2022/07/12 00:10:55;;;;;;;1.58;0.70;;;17.50;99.90;;;;;;5031540;28;20044;-89
2022/07/12 00:13:21;;;;;;;1.48;0.50;;;17.40;99.90;;;;;;5029262;28;20034;-90
2022/07/12 00:15:46;;;;;;;0.85;0.40;;;17.40;99.90;;;;;;5028563;28;20040;-90
2022/07/12 00:18:12;;;;;;;1.70;0.73;;;17.30;99.90;;;;;;5032889;28;21459;-88
2022/07/12 00:20:38;;;;;;;1.10;0.50;;;17.30;99.90;;;;;;5036061;28;20029;-89
2022/07/12 00:23:04;;;;;;;1.42;0.30;;;17.30;99.90;;;;;;5028855;28;20064;-89
2022/07/12 00:25:30;;;;;;;0.90;0.40;;;17.30;99.90;;;;;;5026891;28;20025;-90
2022/07/12 00:27:55;;;;;;;0.82;0.40;;;17.30;99.90;;;;;;5034857;28;20128;-89
2022/07/12 00:30:22;;;;;;;1.25;0.50;;;17.30;99.90;;;;;;5033127;28;20119;-90
2022/07/12 00:32:47;;;;;;;1.83;0.45;;;17.30;99.90;;;;;;5037520;28;20026;-89
2022/07/12 00:35:14;;;;;;;1.27;0.50;;;17.20;99.90;;;;;;5033802;28;20087;-90
2022/07/12 00:37:42;;;;;;;1.80;0.50;;;17.20;99.90;;;;;;5044035;28;20037;-91
2022/07/12 00:40:10;;;;;;;0.82;0.40;;;17.20;99.90;;;;;;5029344;28;20104;-90
2022/07/12 00:42:44;;;;;;;0.88;0.40;;;17.10;99.90;;;;;;5041649;28;20025;-89
2022/07/12 00:45:15;;;;;;;1.30;0.65;;;17.10;99.90;;;;;;5028628;28;20132;-91
2022/07/12 00:47:46;;;;;;;2.50;0.50;;;17.20;99.90;;;;;;5033430;28;20033;-89
2022/07/12 00:50:17;;;;;;;1.25;0.40;;;17.20;99.90;;;;;;5023181;28;20034;-90
2022/07/12 00:52:48;;;;;;;1.02;0.40;;;17.10;99.90;;;;;;5024957;28;20029;-91
2022/07/12 00:55:21;;;;;;;1.35;0.50;;;17.10;99.90;;;;;;5027051;28;20040;-90
2022/07/12 00:57:47;;;;;;;0.65;0.32;;;17.10;99.90;;;;;;5057756;28;20071;-91
2022/07/12 01:03:56;;;;;;;1.02;0.40;;;17.10;99.90;;;;;;4952645;28;20771;-90
2022/07/12 01:06:22;;;;;;;0.93;0.40;;;17.00;99.90;;;;;;5038957;28;20035;-90
2022/07/12 01:08:48;;;;;;;0.90;0.50;;;17.10;99.90;;;;;;5033889;28;20033;-90
2022/07/12 01:11:15;;;;;;;1.02;0.52;;;17.10;99.90;;;;;;5033011;28;20033;-88
2022/07/12 01:13:41;;;;;;;1.08;0.40;;;17.10;99.90;;;;;;5033067;28;20124;-90
2022/07/12 01:16:09;;;;;;;2.17;0.63;;;17.10;99.90;;;;;;5030784;28;20029;-92
2022/07/12 01:18:35;;;;;;;1.40;0.50;;;17.10;99.90;;;;;;5038863;28;20032;-91
2022/07/12 01:21:07;;;;;;;0.80;0.32;;;17.10;99.90;;;;;;5022081;28;20017;-90
2022/07/12 01:23:34;;;;;;;1.17;0.55;;;17.10;99.90;;;;;;5029472;28;20020;-90
2022/07/12 01:26:00;;;;;;;1.27;0.40;;;17.20;99.90;;;;;;5041759;28;20055;-90
2022/07/12 01:28:26;;;;;;;1.17;0.50;;;17.10;99.90;;;;;;5028901;28;20030;-90
2022/07/12 01:30:59;;;;;;;0.88;0.40;;;17.00;99.90;;;;;;5031055;28;20025;-90
2022/07/12 01:33:31;;;;;;;1.83;0.70;;;17.00;99.90;;;;;;5028677;28;20049;-91
2022/07/12 01:35:59;;;;;;;1.25;0.38;;;17.00;99.90;;;;;;5031913;28;20028;-90
2022/07/12 01:38:26;;;;;;;1.17;0.43;;;17.00;99.90;;;;;;5036422;28;20107;-90
2022/07/12 01:40:52;;;;;;;1.33;0.40;;;17.00;99.90;;;;;;5031040;28;20111;-90
2022/07/12 01:43:25;;;;;;;1.17;0.50;;;17.00;99.90;;;;;;5024062;28;20481;-89
2022/07/12 01:45:51;;;;;;;1.38;0.50;;;16.90;99.90;;;;;;5030405;28;20040;-89
2022/07/12 01:48:17;;;;;;;1.13;0.57;;;16.90;99.90;;;;;;5022955;28;20394;-90
2022/07/12 01:50:49;;;;;;;0.52;0.30;;;16.90;99.90;;;;;;5029582;28;20489;-90
2022/07/12 01:53:16;;;;;;;1.55;0.60;;;16.80;99.90;;;;;;5041235;28;20056;-90
2022/07/12 01:55:47;;;;;;;1.25;0.50;;;16.80;99.90;;;;;;5034044;28;20470;-90
2022/07/12 01:58:15;;;;;;;1.40;0.60;;;16.70;99.90;;;;;;5050783;28;20408;-90
2022/07/12 02:00:50;;;;;;;2.42;0.60;;;16.80;99.90;;;;;;5040636;28;20039;-90
2022/07/12 02:03:18;;;;;;;1.15;0.35;;;16.80;99.90;;;;;;5033152;28;20493;-90
2022/07/12 02:05:46;;;;;;;0.98;0.47;;;16.60;99.90;;;;;;5023272;28;20021;-90
2022/07/12 02:08:15;;;;;;;0.68;0.30;;;16.80;99.90;;;;;;5027742;28;20025;-90
2022/07/12 02:10:42;;;;;;;1.17;0.40;;;16.70;99.90;;;;;;5007608;22;20080;-86
2022/07/12 02:13:07;;;;;;;1.70;0.60;;;16.70;99.90;;;;;;4986513;28;20030;-86
2022/07/12 02:15:33;;;;;;;0.63;0.32;;;16.70;99.90;;;;;;4998551;28;20110;-87
2022/07/12 02:17:59;;;;;;;1.10;0.47;;;16.60;99.90;;;;;;4999744;28;20539;-87
2022/07/12 02:20:25;;;;;;;1.23;0.30;;;16.60;99.90;;;;;;5003095;28;20035;-87
2022/07/12 02:22:50;;;;;;;0.85;0.30;;;16.60;99.90;;;;;;4987518;28;20524;-87
2022/07/12 02:25:16;;;;;;;0.93;0.40;;;16.60;99.90;;;;;;4984240;28;20101;-86
2022/07/12 02:27:43;;;;;;;0.98;0.30;;;16.60;99.90;;;;;;4986290;28;20034;-87
2022/07/12 02:30:10;;;;;;;1.58;0.50;;;16.50;99.90;;;;;;4999858;28;20030;-87
2022/07/12 02:32:36;;;;;;;0.95;0.40;;;16.50;99.90;;;;;;4987629;28;20032;-86
2022/07/12 02:35:05;;;;;;;0.57;0.28;;;16.40;99.90;;;;;;4983885;28;20033;-87
2022/07/12 02:37:31;;;;;;;1.80;0.57;;;16.40;99.90;;;;;;4988869;28;20065;-86
2022/07/12 02:42:44;;;;;;;1.02;0.30;;;16.20;99.90;;;;;;4988264;28;20178;-86
2022/07/12 02:45:10;;;;;;;1.58;0.52;;;16.20;99.90;;;;;;5000960;28;20117;-86
2022/07/12 02:47:40;;;;;;;0.80;0.30;;;16.20;99.90;;;;;;4988513;28;20034;-87
2022/07/12 02:50:07;;;;;;;1.27;0.40;;;16.10;99.90;;;;;;4987640;28;20027;-87
2022/07/12 02:52:33;;;;;;;1.02;0.32;;;16.00;99.90;;;;;;4982626;28;20034;-87
2022/07/12 02:54:59;;;;;;;1.15;0.40;;;16.10;99.90;;;;;;4983751;28;20039;-87
2022/07/12 02:57:25;;;;;;;2.20;0.50;;;16.00;99.90;;;;;;4978881;28;20023;-86
2022/07/12 02:59:50;;;;;;;1.00;0.50;;;16.00;99.90;;;;;;4986851;28;20076;-87
2022/07/12 03:02:16;;;;;;;0.95;0.40;;;15.90;99.90;;;;;;4982776;28;20105;-86
2022/07/12 03:04:42;;;;;;;1.45;0.60;;;15.70;99.90;;;;;;5003600;28;20035;-87
2022/07/12 03:07:07;;;;;;;1.85;0.57;;;15.90;99.90;;;;;;4987409;28;20034;-87
2022/07/12 03:09:33;;;;;;;1.25;0.57;;;15.90;99.90;;;;;;4987182;28;20034;-87
2022/07/12 03:11:58;;;;;;;1.15;0.35;;;15.90;99.90;;;;;;4987461;28;20026;-87
2022/07/12 03:14:24;;;;;;;1.05;0.50;;;15.90;99.90;;;;;;5007402;28;20621;-87
2022/07/12 03:16:50;;;;;;;1.52;0.43;;;15.90;99.90;;;;;;4994322;28;20034;-86
2022/07/12 03:19:16;;;;;;;2.47;0.50;;;15.90;99.90;;;;;;5008397;28;20057;-87
2022/07/12 03:21:42;;;;;;;2.08;0.50;;;15.90;99.90;;;;;;4995452;28;20034;-87
2022/07/12 03:24:08;;;;;;;1.45;0.32;;;15.90;99.90;;;;;;4994497;28;20026;-87
2022/07/12 03:26:33;;;;;;;1.33;0.50;;;15.90;99.90;;;;;;4994046;28;20546;-86
2022/07/12 03:29:02;;;;;;;0.68;0.40;;;15.90;99.90;;;;;;4993870;28;20453;-87
2022/07/12 03:31:28;;;;;;;1.08;0.50;;;15.90;99.90;;;;;;4994881;28;20038;-86
2022/07/12 03:33:53;;;;;;;1.08;0.50;;;15.90;99.90;;;;;;4990502;28;20543;-86
2022/07/12 03:36:19;;;;;;;1.58;0.70;;;15.90;99.90;;;;;;4990384;28;20022;-87
2022/07/12 03:38:45;;;;;;;0.57;0.38;;;15.90;99.90;;;;;;5008395;28;20038;-87
2022/07/12 03:41:11;;;;;;;1.23;0.45;;;15.90;99.90;;;;;;4992343;28;20088;-87
2022/07/12 03:43:37;;;;;;;1.20;0.50;;;15.90;99.90;;;;;;4993079;28;20030;-86
2022/07/12 03:46:03;;;;;;;1.17;0.40;;;15.90;99.90;;;;;;4994363;28;20031;-86
2022/07/12 03:48:29;;;;;;;2.28;0.43;;;15.90;99.90;;;;;;4994063;28;20027;-87
2022/07/12 03:50:55;;;;;;;1.10;0.40;;;15.90;99.90;;;;;;4989092;28;20109;-87
2022/07/12 03:53:21;;;;;;;1.05;0.50;;;15.90;99.90;;;;;;4992254;28;20026;-87
2022/07/12 03:55:46;;;;;;;0.85;0.40;;;15.90;99.90;;;;;;4991230;28;20032;-87
2022/07/12 03:58:12;;;;;;;1.38;0.50;;;15.90;99.90;;;;;;4992971;28;20018;-86
2022/07/12 04:00:40;;;;;;;1.90;0.70;;;15.90;99.90;;;;;;5008766;28;20118;-87
2022/07/12 04:03:05;;;;;;;1.60;0.57;;;15.90;99.90;;;;;;4991729;28;20487;-87
2022/07/12 04:05:31;;;;;;;1.00;0.38;;;15.90;99.90;;;;;;4993301;28;20057;-88
2022/07/12 04:07:57;;;;;;;0.95;0.40;;;15.90;99.90;;;;;;4993260;28;20030;-87
2022/07/12 04:10:22;;;;;;;1.05;0.45;;;15.90;99.90;;;;;;4991725;28;20038;-87
2022/07/12 04:12:48;;;;;;;0.90;0.45;;;15.80;99.90;;;;;;4991910;28;20049;-87
2022/07/12 04:15:14;;;;;;;1.92;0.55;;;15.90;99.90;;;;;;4988404;28;20037;-87
2022/07/12 04:17:39;;;;;;;1.80;0.60;;;15.80;99.90;;;;;;4992058;28;20106;-86
2022/07/12 04:20:06;;;;;;;1.00;0.50;;;15.80;99.90;;;;;;4992974;28;20085;-87
2022/07/12 04:22:32;;;;;;;1.38;0.45;;;15.80;99.90;;;;;;4992060;28;20605;-87
2022/07/12 04:25:00;;;;;;;1.20;0.40;;;15.80;99.90;;;;;;4992434;28;20074;-86
2022/07/12 04:27:26;;;;;;;1.35;0.52;;;15.70;99.90;;;;;;4992589;28;20465;-86
2022/07/12 04:29:52;;;;;;;1.83;0.50;;;15.80;99.90;;;;;;4993719;28;20026;-86
2022/07/12 04:32:18;;;;;;;0.98;0.30;;;15.80;99.90;;;;;;4995323;28;20041;-86
2022/07/12 04:34:44;;;;;;;0.88;0.40;;;15.80;99.90;;;;;;4993732;28;20443;-87
2022/07/12 04:37:09;;;;;;;1.48;0.40;;;15.80;99.90;;;;;;4988694;28;20034;-86
2022/07/12 04:39:35;;;;;;;1.17;0.50;;;16.00;99.90;;;;;;5003614;28;20037;-87
2022/07/12 04:42:01;;;;;;;2.25;0.85;;;16.00;99.90;;;;;;4990766;28;20050;-86
2022/07/12 04:44:27;;;;;;;4.88;0.50;;;16.10;99.90;;;;;;4990226;28;20057;-87
2022/07/12 04:46:53;;;;;;;1.38;0.40;;;16.20;99.90;;;;;;4990884;28;20026;-87
2022/07/12 04:49:19;;;;;;;1.98;0.63;;;16.30;99.90;;;;;;4991177;28;20033;-86
2022/07/12 04:51:45;;;;;;;1.52;0.50;;;16.30;99.90;;;;;;4990295;28;20101;-87
2022/07/12 04:54:11;;;;;;;1.52;0.60;;;16.40;99.90;;;;;;4989379;28;20061;-87
2022/07/12 04:56:36;;;;;;;1.85;0.70;;;16.50;99.90;;;;;;4988517;28;20061;-87
2022/07/12 04:59:02;;;;;;;2.05;0.70;;;16.60;99.90;;;;;;4991071;28;20049;-85
2022/07/12 05:01:29;;;;;;;2.08;0.70;;;16.60;99.90;;;;;;4990537;28;20042;-86
2022/07/12 05:03:55;;;;;;;1.58;0.47;;;16.70;99.90;;;;;;4988186;28;20077;-87
2022/07/12 05:06:22;;;;;;;1.38;0.60;;;16.80;99.90;;;;;;4983633;28;20616;-87
2022/07/12 05:08:48;;;;;;;1.83;0.52;;;16.90;99.90;;;;;;4981357;28;20531;-87
2022/07/12 05:11:14;;;;;;;1.80;0.68;;;16.90;99.90;;;;;;4978091;28;20037;-87
2022/07/12 05:13:39;;;;;;;1.77;0.65;;;16.80;99.90;;;;;;4995728;28;20041;-87
2022/07/12 05:16:08;;;;;;;2.17;0.73;;;17.00;99.90;;;;;;4984802;28;20027;-87
2022/07/12 05:18:35;;;;;;;2.40;0.77;;;17.10;99.90;;;;;;4982800;28;20031;-87
2022/07/12 05:21:01;;;;;;;2.90;1.15;;;17.20;99.90;;;;;;4987287;28;20025;-87
2022/07/12 05:23:27;;;;;;;2.33;0.60;;;17.30;99.90;;;;;;4977425;28;20026;-87
2022/07/12 05:25:52;;;;;;;2.10;0.63;;;17.40;99.90;;;;;;4989059;28;20030;-86
2022/07/12 05:28:18;;;;;;;2.90;0.52;;;17.40;99.90;;;;;;4980111;28;20023;-87
2022/07/12 05:30:44;;;;;;;0.93;0.50;;;17.60;99.90;;;;;;4999966;28;20030;-87
2022/07/12 05:33:11;;;;;;;2.70;0.75;;;17.60;99.90;;;;;;4978410;28;20034;-88
2022/07/12 05:35:38;;;;;;;2.50;0.73;;;17.70;99.90;;;;;;4988398;28;20384;-87
2022/07/12 05:38:03;;;;;;;1.77;0.50;;;17.90;99.90;;;;;;4986052;28;20109;-88
2022/07/12 05:40:29;;;;;;;1.95;0.50;;;18.00;99.90;;;;;;4989796;28;20113;-87
2022/07/12 05:42:55;;;;;;;2.60;0.68;;;18.10;99.90;;;;;;5000197;28;20026;-88
2022/07/12 05:45:22;;;;;;;1.30;0.50;;;18.10;99.90;;;;;;4985729;28;20026;-87
2022/07/12 05:47:48;;;;;;;2.03;0.60;;;18.10;99.90;;;;;;4993590;28;20077;-88
2022/07/12 05:50:13;;;;;;;1.73;0.60;;;18.20;99.90;;;;;;4983219;28;20018;-88
2022/07/12 05:55:23;;;;;;;1.90;0.68;;;18.30;99.90;;;;;;4990670;28;20037;-87
2022/07/12 05:57:49;;;;;;;1.58;0.80;;;18.40;99.90;;;;;;4987635;28;20116;-88
2022/07/12 06:00:15;;;;;;;1.90;0.50;;;18.40;99.90;;;;;;4989327;28;20026;-88
2022/07/12 06:02:41;;;;;;;1.05;0.45;;;18.50;99.90;;;;;;4990106;28;20113;-87
2022/07/12 06:05:07;;;;;;;1.75;0.80;;;18.60;99.90;;;;;;4988051;28;20022;-89
2022/07/12 06:07:32;;;;;;;1.45;0.60;;;18.60;99.90;;;;;;4986869;28;20019;-88
2022/07/12 06:09:58;;;;;;;2.55;0.90;;;18.70;99.90;;;;;;5001498;28;20121;-87
2022/07/12 06:12:25;;;;;;;1.85;0.85;;;18.90;99.90;;;;;;4990242;28;20035;-87
2022/07/12 06:14:53;;;;;;;1.17;0.60;;;19.00;99.90;;;;;;5002464;28;20477;-87
2022/07/12 06:17:22;;;;;;;1.40;0.38;;;19.20;99.90;;;;;;4984462;28;20027;-87
2022/07/12 06:19:48;;;;;;;1.48;0.30;;;19.20;99.90;;;;;;5001899;28;20150;-88
2022/07/12 06:22:18;;;;;;;0.82;0.20;;;19.20;99.90;;;;;;4983479;28;20062;-87
2022/07/12 06:24:44;;;;;;;1.30;0.30;;;19.10;99.90;;;;;;4986007;28;20015;-88
2022/07/12 06:27:10;;;;;;;0.85;0.30;;;19.10;99.90;;;;;;4984005;28;20068;-87
2022/07/12 06:29:35;;;;;;;0.88;0.17;;;19.10;99.90;;;;;;4997060;28;20108;-87
2022/07/12 06:32:06;;;;;;;0.65;0.30;;;19.10;99.90;;;;;;4989862;28;20585;-87
2022/07/12 06:34:32;;;;;;;0.73;0.20;;;19.10;99.90;;;;;;4998944;28;20444;-89
2022/07/12 06:36:57;;;;;;;0.70;0.30;;;19.20;99.90;;;;;;5002377;28;20269;-87
2022/07/12 06:39:32;;;;;;;1.40;0.20;;;19.30;99.90;;;;;;4987138;28;20041;-87
2022/07/12 06:42:09;;;;;;;2.35;0.55;;;19.40;99.90;;;;;;4985878;28;20015;-87
2022/07/12 06:44:35;;;;;;;0.93;0.30;;;19.50;99.90;;;;;;4984646;28;20027;-87
2022/07/12 06:47:03;;;;;;;0.77;0.35;;;19.50;99.90;;;;;;5001797;28;20037;-88
2022/07/12 06:49:29;;;;;;;1.10;0.28;;;19.50;99.90;;;;;;4980899;28;20026;-87
2022/07/12 06:51:55;;;;;;;1.15;0.50;;;19.60;99.90;;;;;;5004453;28;20037;-87
2022/07/12 06:54:33;;;;;;;0.77;0.38;;;19.70;99.90;;;;;;4985384;28;20029;-87
2022/07/12 06:57:06;;;;;;;0.88;0.38;;;19.80;99.90;;;;;;4990158;28;20105;-87
2022/07/12 06:59:41;;;;;;;0.70;0.30;;;20.00;99.90;;;;;;5000067;28;20447;-88
2022/07/12 07:02:07;;;;;;;1.05;0.22;;;20.00;99.90;;;;;;4992371;28;20101;-87
2022/07/12 07:04:45;;;;;;;0.95;0.20;;;20.20;99.90;;;;;;4986491;28;20678;-87
2022/07/12 07:07:12;;;;;;;0.98;0.20;;;20.10;99.90;;;;;;4991979;28;20058;-87
2022/07/12 07:09:38;;;;;;;0.85;0.30;;;20.10;99.90;;;;;;4993468;28;20117;-87
2022/07/12 07:12:20;;;;;;;0.65;0.10;;;20.30;99.90;;;;;;4984966;28;20027;-87
2022/07/12 07:15:00;;;;;;;0.75;0.22;;;20.50;99.90;;;;;;5008515;28;20038;-88
2022/07/12 07:17:26;;;;;;;0.85;0.40;;;20.50;99.90;;;;;;4987306;28;20565;-87
2022/07/12 07:20:18;;;;;;;1.05;0.22;;;20.60;99.90;;;;;;4986233;28;20062;-87
2022/07/12 07:22:45;;;;;;;0.90;0.47;;;20.70;99.90;;;;;;4985814;28;20050;-87
2022/07/12 07:25:11;;;;;;;0.77;0.30;;;20.70;99.90;;;;;;4991933;28;20042;-87
2022/07/12 07:27:38;;;;;;;0.80;0.30;;;20.90;99.90;;;;;;4993304;28;20030;-88
2022/07/12 07:32:50;;;;;;;1.13;0.20;;;21.10;99.90;;;;;;4982465;28;20042;-88
2022/07/12 07:35:16;;;;;;;3.03;0.40;;;21.00;99.90;;;;;;5001256;28;20035;-88
2022/07/12 07:37:42;;;;;;;0.90;0.40;;;21.30;99.90;;;;;;4987985;28;20121;-88
2022/07/12 07:40:08;;;;;;;2.17;0.30;;;21.40;99.90;;;;;;4990813;28;20122;-88
2022/07/12 07:42:36;;;;;;;0.68;0.30;;;21.60;99.90;;;;;;4991957;28;20026;-88
2022/07/12 07:45:06;;;;;;;1.15;0.50;;;21.60;99.90;;;;;;4991733;28;20054;-88
2022/07/12 07:47:41;;;;;;;1.42;0.40;;;21.70;99.80;;;;;;4990742;28;20143;-88
2022/07/12 07:50:08;;;;;;;0.65;0.20;;;21.90;99.10;;;;;;4988564;28;20266;-88
2022/07/12 07:52:35;;;;;;;0.80;0.20;;;22.10;98.30;;;;;;4989895;28;20022;-88
2022/07/12 07:55:04;;;;;;;0.68;0.25;;;22.20;97.90;;;;;;4990572;28;20145;-88
2022/07/12 07:57:34;;;;;;;2.00;0.32;;;22.20;98.00;;;;;;5002969;28;20023;-87
2022/07/12 08:00:02;;;;;;;2.00;0.38;;;22.20;97.90;;;;;;4990400;28;20022;-90
2022/07/12 08:02:29;;;;;;;0.85;0.10;;;22.30;98.10;;;;;;4986899;28;20022;-90
2022/07/12 08:05:00;;;;;;;1.33;0.10;;;22.40;96.60;;;;;;5003701;28;20023;-89
2022/07/12 08:07:29;;;;;;;0.37;0.20;;;22.50;96.60;;;;;;5001899;28;20499;-91
2022/07/12 08:10:04;;;;;;;0.43;0.10;;;22.60;96.20;;;;;;4981002;28;20030;-90
2022/07/12 08:12:31;;;;;;;0.28;0.20;;;22.50;96.90;;;;;;5008157;28;20516;-89
2022/07/12 08:14:56;;;;;;;0.45;0.20;;;22.50;97.00;;;;;;4987376;28;20034;-89
2022/07/12 08:17:22;;;;;;;0.40;0.22;;;22.60;97.00;;;;;;5000653;28;20411;-89
2022/07/12 08:19:48;;;;;;;0.25;0.10;;;22.60;97.00;;;;;;4987266;28;20042;-89
2022/07/12 08:22:14;;;;;;;0.40;0.10;;;22.60;97.00;;;;;;4999014;28;20026;-90
2022/07/12 08:24:43;;;;;;;0.40;0.10;;;22.70;97.20;;;;;;4990140;28;20034;-90
2022/07/12 08:27:16;;;;;;;0.30;0.20;;;22.70;97.00;;;;;;4991478;28;20026;-90
2022/07/12 08:29:47;;;;;;;0.40;0.10;;;22.70;97.00;;;;;;5002130;28;20065;-89
2022/07/12 08:32:13;;;;;;;0.30;0.20;;;22.80;96.50;;;;;;4999152;28;20026;-90
2022/07/12 08:34:38;;;;;;;0.20;0.00;;;22.90;96.30;;;;;;4987169;28;20026;-90
2022/07/12 08:37:05;;;;;;;0.25;0.10;;;22.90;95.90;;;;;;4983680;28;20031;-90
2022/07/12 08:39:31;;;;;;;0.25;0.10;;;22.90;95.70;;;;;;4993864;28;20038;-89
2022/07/12 08:41:57;;;;;;;2.10;0.30;;;23.10;96.10;;;;;;4991933;28;20022;-90
2022/07/12 08:44:25;;;;;;;0.52;0.15;;;23.10;95.50;;;;;;4992080;28;20109;-90
2022/07/12 08:46:52;;;;;;;0.60;0.20;;;22.90;95.60;;;;;;4989574;28;20026;-90
2022/07/12 08:49:21;;;;;;;0.50;0.20;;;23.30;95.70;;;;;;4986061;28;20069;-90
2022/07/12 08:51:49;;;;;;;1.35;0.30;;;23.40;95.50;;;;;;5007601;28;20037;-90
2022/07/12 08:54:16;;;;;;;0.73;0.30;;;23.60;95.50;;;;;;4991913;28;20022;-89
2022/07/12 08:56:50;;;;;;;0.20;0.10;;;23.70;94.80;;;;;;4990306;28;20054;-89
2022/07/12 08:59:22;;;;;;;0.20;0.10;;;23.70;94.10;;;;;;4986303;28;20039;-89
2022/07/12 09:01:51;;;;;;;0.20;0.10;;;23.70;94.30;;;;;;4988935;28;20093;-91
2022/07/12 09:04:27;;;;;;;0.85;0.10;;;23.90;94.00;;;;;;4991139;28;20023;-88
2022/07/12 09:06:56;;;;;;;0.10;0.10;;;23.70;93.40;;;;;;4988254;28;20022;-90
2022/07/12 09:09:32;;;;;;;0.57;0.20;;;23.70;93.70;;;;;;4989852;28;20026;-92
2022/07/12 09:12:04;;;;;;;0.30;0.17;;;23.40;93.80;;;;;;5015666;28;20026;-91
2022/07/12 09:14:37;;;;;;;0.55;0.20;;;23.10;94.20;;;;;;4993078;28;20053;-91
2022/07/12 09:17:09;;;;;;;0.43;0.20;;;22.90;93.80;;;;;;4989698;28;20642;-90
2022/07/12 09:19:37;;;;;;;0.77;0.20;;;23.30;93.60;;;;;;5008519;28;20041;-90
2022/07/12 09:22:03;;;;;;;0.82;0.30;;;23.50;93.30;;;;;;4993275;28;20053;-90
2022/07/12 09:24:32;;;;;;;1.35;0.47;;;23.80;93.10;;;;;;4998023;28;20280;-90
2022/07/12 09:27:04;;;;;;;0.73;0.20;;;23.70;92.40;;;;;;4989818;28;20037;-90
2022/07/12 09:29:45;;;;;;;0.70;0.25;;;23.90;92.50;;;;;;4988143;28;20026;-88
2022/07/12 09:37:48;;;;;;;0.22;0.20;;;23.80;93.00;;;;;;4992932;28;20045;-89
2022/07/12 09:40:14;;;;;;;0.50;0.10;;;23.80;93.30;;;;;;4987956;28;20023;-91
2022/07/12 09:42:48;;;;;;;0.25;0.10;;;24.10;93.10;;;;;;4991620;28;20019;-91
2022/07/12 09:45:17;;;;;;;0.98;0.10;;;24.50;92.40;;;;;;4990251;28;20502;-90
2022/07/12 09:47:44;;;;;;;0.50;0.20;;;24.80;92.30;;;;;;5003482;28;20525;-91
2022/07/12 09:50:14;;;;;;;0.63;0.10;;;24.70;91.80;;;;;;5008234;28;20030;-90
2022/07/12 09:52:44;;;;;;;0.10;0.10;;;24.40;91.50;;;;;;4993367;28;20033;-90
2022/07/12 09:55:15;;;;;;;0.55;0.10;;;24.10;92.10;;;;;;4991671;28;20615;-91
2022/07/12 09:57:45;;;;;;;1.33;0.10;;;24.00;91.90;;;;;;5005485;28;20030;-90
2022/07/12 10:00:12;;;;;;;0.10;0.10;;;24.30;91.90;;;;;;4989735;28;20285;-90
2022/07/12 10:02:38;;;;;;;0.50;0.10;;;24.70;91.40;;;;;;4989843;28;20403;-89
2022/07/12 10:05:06;;;;;;;0.25;0.13;;;24.60;91.20;;;;;;4987508;28;20471;-88
2022/07/12 10:07:33;;;;;;;0.45;0.17;;;24.80;91.20;;;;;;4993097;28;20096;-89
2022/07/12 10:09:58;;;;;;;0.00;0.00;;;25.00;91.40;;;;;;4994412;28;20054;-89
2022/07/12 10:12:25;;;;;;;0.35;0.20;;;25.30;90.90;;;;;;4993797;28;20030;-89
2022/07/12 10:14:57;;;;;;;0.38;0.10;;;25.50;90.80;;;;;;4990189;28;20042;-89
2022/07/12 10:17:24;;;;;;;0.22;0.10;;;25.70;90.30;;;;;;4990876;28;20479;-88
2022/07/12 10:20:09;;;;;;;0.55;0.20;;;26.00;89.20;;;;;;4993807;28;20104;-89
2022/07/12 10:22:35;;;;;;;0.38;0.10;;;26.00;90.40;;;;;;4985670;28;20019;-88
2022/07/12 10:25:01;;;;;;;0.60;0.10;;;26.20;89.60;;;;;;4988492;28;20022;-90
2022/07/12 10:27:29;;;;;;;0.22;0.10;;;26.00;87.70;;;;;;4991285;28;20026;-89
2022/07/12 10:30:16;;;;;;;0.20;0.10;;;26.20;89.20;;;;;;4994223;28;20077;-88
2022/07/12 10:32:44;;;;;;;0.77;0.25;;;26.10;88.30;;;;;;4991329;28;20092;-88
2022/07/12 10:35:19;;;;;;;0.40;0.17;;;26.00;89.00;;;;;;5009437;28;20781;-88
2022/07/12 10:38:17;;;;;;;0.40;0.10;;;26.30;88.40;;;;;;4994564;28;20037;-90
2022/07/12 10:40:44;;;;;;;1.27;0.10;;;26.10;88.40;;;;;;5006819;28;20029;-89
2022/07/12 10:43:13;;;;;;;0.30;0.10;;;25.90;88.70;;;;;;4994108;28;20102;-88
2022/07/12 10:45:41;;;;;;;0.20;0.10;;;26.20;88.30;;;;;;4994723;28;20026;-91
2022/07/12 10:48:12;;;;;;;1.67;0.13;;;26.40;87.60;;;;;;4990246;28;20511;-88
2022/07/12 10:50:44;;;;;;;0.70;0.20;;;26.40;87.10;;;;;;4995328;28;20031;-89
2022/07/12 10:53:22;;;;;;;0.25;0.10;;;26.50;86.90;;;;;;4992784;28;20026;-89
2022/07/12 10:56:16;;;;;;;0.25;0.10;;;26.60;87.40;;;;;;4992860;28;20053;-86
2022/07/12 10:58:55;;;;;;;0.20;0.10;;;26.20;87.40;;;;;;4991896;28;20030;-89
2022/07/12 11:01:22;;;;;;;0.20;0.00;;;26.20;86.10;;;;;;4990361;28;20073;-90
2022/07/12 11:03:57;;;;;;;0.20;0.10;;;26.30;85.00;;;;;;4995769;28;20030;-89
2022/07/12 11:06:24;;;;;;;0.60;0.10;;;25.90;85.60;;;;;;4992752;28;20050;-89
2022/07/12 11:08:51;;;;;;;0.00;0.00;;;26.10;86.20;;;;;;4993684;28;20502;-87
2022/07/12 11:11:20;;;;;;;0.10;0.10;;;26.20;86.70;;;;;;4992759;28;20035;-88
2022/07/12 11:13:48;;;;;;;0.22;0.05;;;26.50;87.10;;;;;;4992351;28;20347;-89
2022/07/12 11:16:14;;;;;;;0.65;0.20;;;26.70;85.70;;;;;;4993288;28;20027;-90
2022/07/12 11:18:43;;;;;;;0.68;0.25;;;27.10;85.80;;;;;;4992190;28;20097;-88
2022/07/12 11:21:12;;;;;;;0.17;0.00;;;27.30;84.00;;;;;;4993656;28;20471;-88
2022/07/12 11:23:40;;;;;;;0.13;0.10;;;27.50;83.70;;;;;;4994353;28;20566;-90
2022/07/12 11:26:14;;;;;;;0.43;0.15;;;27.60;83.40;;;;;;4993690;28;20026;-89
2022/07/12 11:28:43;;;;;;;0.90;0.10;;;27.80;83.80;;;;;;4992189;28;20038;-87
2022/07/12 11:31:29;;;;;;;0.65;0.10;;;28.10;82.50;;;;;;4994152;28;20027;-88
2022/07/12 11:33:56;;;;;;;0.20;0.10;;;28.30;81.10;;;;;;4991296;28;20073;-90
2022/07/12 11:36:27;;;;;;;0.40;0.10;;;28.50;81.30;;;;;;4990936;28;20034;-89
2022/07/12 11:39:07;;;;;;;0.10;0.00;;;28.40;80.20;;;;;;4992320;28;20038;-90
2022/07/12 11:41:33;;;;;;;0.00;0.00;;;28.50;79.50;;;;;;4992061;28;20097;-90
2022/07/12 11:44:10;;;;;;;0.08;0.00;;;28.30;78.30;;;;;;4993112;28;20065;-90
2022/07/12 11:46:37;;;;;;;0.35;0.10;;;28.50;78.20;;;;;;5005896;28;20015;-90
2022/07/12 11:49:15;;;;;;;0.00;0.00;;;28.30;78.90;;;;;;4991842;28;20022;-90
2022/07/12 11:51:42;;;;;;;0.20;0.00;;;28.70;80.90;;;;;;4992276;28;20054;-90
2022/07/12 11:54:07;;;;;;;0.30;0.10;;;28.70;78.50;;;;;;4992361;28;20022;-90
2022/07/12 11:56:33;;;;;;;0.10;0.10;;;28.70;77.90;;;;;;4993069;28;20027;-90
2022/07/12 11:58:59;;;;;;;0.20;0.10;;;28.90;77.00;;;;;;4991964;28;20042;-91
2022/07/12 12:01:25;;;;;;;0.10;0.03;;;29.10;76.90;;;;;;4990645;28;20387;-91
2022/07/12 12:03:51;;;;;;;0.30;0.10;;;29.20;75.50;;;;;;4990302;28;20034;-89
2022/07/12 12:06:17;;;;;;;0.10;0.08;;;29.20;75.30;;;;;;4989839;28;20033;-90
2022/07/12 12:08:44;;;;;;;0.00;0.00;;;28.60;75.00;;;;;;4990296;28;20031;-90
2022/07/12 12:11:13;;;;;;;1.55;0.10;;;28.90;75.50;;;;;;4990614;28;20057;-91
2022/07/12 12:13:40;;;;;;;0.03;0.00;;;29.20;75.60;;;;;;4986627;28;20081;-90
2022/07/12 12:16:06;;;;;;;0.10;0.00;;;29.50;75.60;;;;;;5007813;28;20426;-90
2022/07/12 12:18:34;;;;;;;0.20;0.10;;;29.40;75.20;;;;;;4991873;28;20080;-91
2022/07/12 12:21:06;;;;;;;0.43;0.10;;;29.40;75.00;;;;;;4991787;28;20026;-89
2022/07/12 12:23:32;;;;;;;0.10;0.00;;;29.40;76.10;;;;;;4991014;28;20025;-89
2022/07/12 12:26:17;;;;;;;0.93;0.30;;;29.60;75.90;;;;;;4992312;28;20022;-90
2022/07/12 12:28:53;;;;;;;1.17;0.10;;;29.70;75.80;;;;;;4991329;28;20030;-88
2022/07/12 12:31:25;;;;;;;0.20;0.00;;;30.10;74.10;;;;;;4989807;28;20073;-88
2022/07/12 12:33:56;;;;;;;0.10;0.10;;;29.80;73.70;;;;;;4987620;28;20031;-89
2022/07/12 12:36:52;;;;;;;0.43;0.10;;;29.90;74.40;;;;;;4993769;28;20018;-89
2022/07/12 12:39:30;;;;;;;0.00;0.00;;;30.30;74.50;;;;;;5006942;28;20184;-89
2022/07/12 12:41:56;;;;;;;0.08;0.00;;;30.20;72.30;;;;;;4994561;28;20018;-89
2022/07/12 12:44:33;;;;;;;0.43;0.10;;;30.30;74.10;;;;;;4992176;28;20033;-90
2022/07/12 12:49:48;;;;;;;0.20;0.10;;;30.50;72.70;;;;;;4985727;28;20038;-89
2022/07/12 12:52:20;;;;;;;0.17;0.10;;;31.20;71.90;;;;;;4987242;28;20069;-88
2022/07/12 12:54:45;;;;;;;0.10;0.00;;;31.50;71.40;;;;;;4991716;28;20031;-90
2022/07/12 12:57:11;;;;;;;0.43;0.10;;;31.90;71.00;;;;;;4988990;28;20113;-88
2022/07/12 12:59:37;;;;;;;0.00;0.00;;;31.90;70.30;;;;;;4996902;28;20031;-90
2022/07/12 13:02:05;;;;;;;0.00;0.00;;;31.70;70.30;;;;;;4988113;28;20022;-88
2022/07/12 13:04:32;;;;;;;0.30;0.10;;;31.20;69.10;;;;;;4983898;28;20414;-89
2022/07/12 13:06:58;;;;;;;0.30;0.10;;;31.30;69.40;;;;;;4985563;28;20022;-88
2022/07/12 13:09:25;;;;;;;0.40;0.10;;;31.40;68.40;;;;;;4991258;28;20610;-87
2022/07/12 13:11:51;;;;;;;0.08;0.00;;;31.40;68.60;;;;;;4986080;28;20057;-89
2022/07/12 13:14:17;;;;;;;0.00;0.00;;;31.10;70.50;;;;;;4987066;28;20113;-88